Time;durP1;ratioP1;P1;durP2;ratioP2;P2;SDS_P1;SDS_P2;PMS_P1;PMS_P2;Temp;Humidity;BMP_temperature;BMP_pressure;BME280_temperature;BME280_humidity;BME280_pressure;Samples;Min_cycle;Max_cycle;Signal;HPM_P1;HPM_P2
2023/01/07 00:01:40;;;;;;;;;;;10.40;99.90;;;;;;5076204;28;20378;-67
2023/01/07 00:04:07;;;;;;;;;;;10.50;99.90;;;;;;5076088;28;20386;-67
2023/01/07 00:06:34;;;;;;;;;;;10.40;99.90;;;;;;5076149;28;19957;-67
2023/01/07 00:09:00;;;;;;;;;;;10.50;99.90;;;;;;5076105;28;19958;-68
2023/01/07 00:11:27;;;;;;;;;;;10.50;99.90;;;;;;5075763;28;20017;-67
2023/01/07 00:13:53;;;;;;;;;;;10.50;99.90;;;;;;5075957;28;19995;-67
2023/01/07 00:16:20;;;;;;;;;;;10.50;99.90;;;;;;5075676;28;19920;-67
2023/01/07 00:18:46;;;;;;;;;;;10.50;99.90;;;;;;5075923;28;20333;-67
2023/01/07 00:21:15;;;;;;;;;;;10.50;99.90;;;;;;5075666;28;19908;-67
2023/01/07 00:23:41;;;;;;;;;;;10.50;99.90;;;;;;5075206;28;19931;-67
2023/01/07 00:26:08;;;;;;;;;;;10.50;99.90;;;;;;5075829;28;20294;-67
2023/01/07 00:28:34;;;;;;;;;;;10.50;99.90;;;;;;5075456;28;19962;-67
2023/01/07 00:31:01;;;;;;;;;;;10.60;99.90;;;;;;5075670;28;19908;-67
2023/01/07 00:33:27;;;;;;;;;;;10.60;99.90;;;;;;5075656;28;20392;-67
2023/01/07 00:36:00;;;;;;;;;;;10.60;99.90;;;;;;5075526;28;19916;-67
2023/01/07 00:38:25;;;;;;;;;;;10.60;99.90;;;;;;5075244;28;19916;-67
2023/01/07 00:40:51;;;;;;;;;;;10.60;99.90;;;;;;5075222;28;19908;-68
2023/01/07 00:43:16;;;;;;;;;;;10.60;99.90;;;;;;5057228;28;19912;-67
2023/01/07 00:45:42;;;;;;;;;;;10.60;99.90;;;;;;5075369;28;19915;-68
2023/01/07 00:48:08;;;;;;;;;;;10.60;99.90;;;;;;5075082;28;20021;-68
2023/01/07 00:50:34;;;;;;;;;;;10.60;99.90;;;;;;5075011;28;19912;-67
2023/01/07 00:52:59;;;;;;;;;;;10.70;99.90;;;;;;5074929;28;20007;-67
2023/01/07 00:55:25;;;;;;;;;;;10.70;99.90;;;;;;5075190;28;19948;-67
2023/01/07 00:57:51;;;;;;;;;;;10.60;99.90;;;;;;5074906;28;19908;-67
2023/01/07 01:00:17;;;;;;;;;;;10.70;99.90;;;;;;5074847;28;19920;-67
2023/01/07 01:02:43;;;;;;;;;;;10.80;99.90;;;;;;5074770;28;19917;-67
2023/01/07 01:05:09;;;;;;;;;;;10.80;99.90;;;;;;5074719;28;19962;-67
2023/01/07 01:07:35;;;;;;;;;;;10.80;99.90;;;;;;5074120;28;19962;-67
2023/01/07 01:10:01;;;;;;;;;;;10.80;99.90;;;;;;5074846;28;19915;-67
2023/01/07 01:12:27;;;;;;;;;;;10.80;99.90;;;;;;5074834;28;19908;-67
2023/01/07 01:14:53;;;;;;;;;;;10.80;99.90;;;;;;5074784;28;20263;-67
2023/01/07 01:17:19;;;;;;;;;;;10.80;99.90;;;;;;5074534;28;20028;-68
2023/01/07 01:19:44;;;;;;;;;;;10.80;99.90;;;;;;5074656;28;20320;-67
2023/01/07 01:22:09;;;;;;;;;;;10.80;99.90;;;;;;5074270;28;19969;-69
2023/01/07 01:24:35;;;;;;;;;;;10.80;99.90;;;;;;5074342;28;19908;-67
2023/01/07 01:27:00;;;;;;;;;;;10.80;99.90;;;;;;5074246;28;19931;-69
2023/01/07 01:29:26;;;;;;;;;;;10.80;99.90;;;;;;5074523;28;19908;-67
2023/01/07 01:31:51;;;;;;;;;;;10.80;99.90;;;;;;5074462;28;19915;-67
2023/01/07 01:34:17;;;;;;;;;;;10.90;99.90;;;;;;5074414;28;19909;-67
2023/01/07 01:36:42;;;;;;;;;;;10.80;99.90;;;;;;5074057;28;19931;-67
2023/01/07 01:39:08;;;;;;;;;;;10.80;99.90;;;;;;5056512;28;19912;-67
2023/01/07 01:41:33;;;;;;;;;;;10.90;99.90;;;;;;5074057;28;19969;-68
2023/01/07 01:43:59;;;;;;;;;;;10.80;99.90;;;;;;5074204;28;19963;-67
2023/01/07 01:46:40;;;;;;;;;;;10.90;99.90;;;;;;5073926;28;19962;-67
2023/01/07 01:49:19;;;;;;;;;;;10.80;99.90;;;;;;5074214;28;19939;-67
2023/01/07 01:51:46;;;;;;;;;;;10.80;99.90;;;;;;5073898;28;19961;-67
2023/01/07 01:54:13;;;;;;;;;;;10.80;99.90;;;;;;5074136;28;20389;-67
2023/01/07 01:56:41;;;;;;;;;;;10.80;99.90;;;;;;5074078;28;19912;-67
2023/01/07 01:59:09;;;;;;;;;;;10.80;99.90;;;;;;5073808;28;19908;-67
2023/01/07 02:01:35;;;;;;;;;;;10.90;99.90;;;;;;5074008;28;20348;-68
2023/01/07 02:04:06;;;;;;;;;;;10.90;99.90;;;;;;5073947;28;19966;-67
2023/01/07 02:06:32;;;;;;;;;;;10.90;99.90;;;;;;5073670;28;19908;-67
2023/01/07 02:08:57;;;;;;;;;;;10.80;99.90;;;;;;5039159;28;19908;-68
2023/01/07 02:11:30;;;;;;;;;;;10.90;99.90;;;;;;5073928;28;19984;-68
2023/01/07 02:14:10;;;;;;;;;;;10.90;99.90;;;;;;5073674;28;19909;-68
2023/01/07 02:16:42;;;;;;;;;;;10.90;99.90;;;;;;5073901;28;19916;-68
2023/01/07 02:19:21;;;;;;;;;;;10.90;99.90;;;;;;5055574;28;20289;-68
2023/01/07 02:22:06;;;;;;;;;;;10.80;99.90;;;;;;5073278;28;19917;-67
2023/01/07 02:24:43;;;;;;;;;;;10.80;99.90;;;;;;5073410;28;19913;-68
2023/01/07 02:27:29;;;;;;;;;;;10.70;99.90;;;;;;5073800;28;19916;-68
2023/01/07 02:30:04;;;;;;;;;;;10.70;99.90;;;;;;5073309;28;19908;-67
2023/01/07 02:32:34;;;;;;;;;;;10.70;99.90;;;;;;5073428;28;19951;-67
2023/01/07 02:35:08;;;;;;;;;;;10.70;99.90;;;;;;5073727;28;19908;-67
2023/01/07 02:37:53;;;;;;;;;;;10.70;99.90;;;;;;5073708;28;19953;-68
2023/01/07 02:40:23;;;;;;;;;;;10.70;99.90;;;;;;5073284;28;19913;-67
2023/01/07 02:43:08;;;;;;;;;;;10.70;99.90;;;;;;5055412;28;19913;-67
2023/01/07 02:45:53;;;;;;;;;;;10.70;99.90;;;;;;5073211;28;19916;-68
2023/01/07 02:48:20;;;;;;;;;;;10.70;99.90;;;;;;5073144;28;19997;-67
2023/01/07 02:50:45;;;;;;;;;;;10.70;99.90;;;;;;5073280;28;19908;-68
2023/01/07 02:53:14;;;;;;;;;;;10.70;99.90;;;;;;5073268;28;20021;-68
2023/01/07 02:58:37;;;;;;;;;;;10.70;99.90;;;;;;5071082;28;19912;-68
2023/01/07 03:01:23;;;;;;;;;;;10.70;99.90;;;;;;5070916;28;19920;-68
2023/01/07 03:04:02;;;;;;;;;;;10.80;99.90;;;;;;5070939;28;19912;-67
2023/01/07 03:06:45;;;;;;;;;;;10.80;99.90;;;;;;5070826;28;19958;-67
2023/01/07 03:09:17;;;;;;;;;;;10.70;99.90;;;;;;5070783;28;19935;-67
2023/01/07 03:11:47;;;;;;;;;;;10.70;99.90;;;;;;5070994;28;20370;-67
2023/01/07 03:14:18;;;;;;;;;;;10.70;99.90;;;;;;5070952;28;19915;-68
2023/01/07 03:16:47;;;;;;;;;;;10.60;99.90;;;;;;5070834;28;19912;-68
2023/01/07 03:19:17;;;;;;;;;;;10.60;99.90;;;;;;5070583;28;19912;-68
2023/01/07 03:21:44;;;;;;;;;;;10.60;99.90;;;;;;5070550;28;19956;-67
2023/01/07 03:24:10;;;;;;;;;;;10.60;99.90;;;;;;5070748;28;19972;-67
2023/01/07 03:26:40;;;;;;;;;;;10.60;99.90;;;;;;5070725;28;19955;-67
2023/01/07 03:29:07;;;;;;;;;;;10.60;99.90;;;;;;5070644;28;19912;-67
2023/01/07 03:31:39;;;;;;;;;;;10.50;99.90;;;;;;5070579;28;20390;-67
2023/01/07 03:34:11;;;;;;;;;;;10.50;99.90;;;;;;5070321;28;19909;-68
2023/01/07 03:36:38;;;;;;;;;;;10.50;99.90;;;;;;5070152;28;19912;-68
2023/01/07 03:39:04;;;;;;;;;;;10.60;99.90;;;;;;5070202;28;20339;-67
2023/01/07 03:44:15;;;;;;;;;;;10.50;99.90;;;;;;5069940;28;19916;-67
2023/01/07 03:46:41;;;;;;;;;;;10.40;99.90;;;;;;5070035;28;19909;-68
2023/01/07 03:49:07;;;;;;;;;;;10.40;99.90;;;;;;5070183;28;19940;-67
2023/01/07 03:51:32;;;;;;;;;;;10.40;99.90;;;;;;5070193;28;20385;-68
2023/01/07 03:53:57;;;;;;;;;;;10.40;99.90;;;;;;5069842;28;19979;-68
2023/01/07 03:56:23;;;;;;;;;;;10.30;99.90;;;;;;5074629;28;19927;-68
2023/01/07 03:58:48;;;;;;;;;;;10.30;99.90;;;;;;5072019;28;19936;-67
2023/01/07 04:01:14;;;;;;;;;;;10.30;99.90;;;;;;5089948;28;19909;-67
2023/01/07 04:03:39;;;;;;;;;;;10.30;99.90;;;;;;5071934;28;19909;-68
2023/01/07 04:06:05;;;;;;;;;;;10.20;99.90;;;;;;5089929;28;19963;-68
2023/01/07 04:08:30;;;;;;;;;;;10.20;99.90;;;;;;5083042;28;19908;-67
2023/01/07 04:10:56;;;;;;;;;;;10.10;99.90;;;;;;5076370;28;20313;-68
2023/01/07 04:13:21;;;;;;;;;;;10.20;99.90;;;;;;5076565;28;19915;-67
2023/01/07 04:15:46;;;;;;;;;;;10.10;99.90;;;;;;5076307;28;19908;-67
2023/01/07 04:18:12;;;;;;;;;;;10.10;99.90;;;;;;5076127;28;20010;-67
2023/01/07 04:20:37;;;;;;;;;;;10.20;99.90;;;;;;5076386;28;19912;-67
2023/01/07 04:23:03;;;;;;;;;;;10.10;99.90;;;;;;5076109;28;19909;-67
2023/01/07 04:25:30;;;;;;;;;;;10.10;99.90;;;;;;5076331;28;19913;-67
2023/01/07 04:27:55;;;;;;;;;;;10.00;99.90;;;;;;5076053;28;19923;-68
2023/01/07 04:30:20;;;;;;;;;;;10.00;99.90;;;;;;5076213;28;20411;-67
2023/01/07 04:32:46;;;;;;;;;;;10.00;99.90;;;;;;5076065;28;20404;-68
2023/01/07 04:35:11;;;;;;;;;;;10.10;99.90;;;;;;5076168;28;19916;-67
2023/01/07 04:37:37;;;;;;;;;;;10.10;99.90;;;;;;5075830;28;20326;-67
2023/01/07 04:40:02;;;;;;;;;;;10.10;99.90;;;;;;5075801;28;20332;-67
2023/01/07 04:42:28;;;;;;;;;;;10.00;99.90;;;;;;5075781;28;19908;-68
2023/01/07 04:44:53;;;;;;;;;;;10.00;99.90;;;;;;5075722;28;19916;-67
2023/01/07 04:47:19;;;;;;;;;;;10.00;99.90;;;;;;5075658;28;19957;-67
2023/01/07 04:49:44;;;;;;;;;;;10.00;99.90;;;;;;5075706;28;19916;-67
2023/01/07 04:52:10;;;;;;;;;;;10.10;99.90;;;;;;5075864;28;19991;-67
2023/01/07 04:54:35;;;;;;;;;;;10.20;99.90;;;;;;5075547;28;19908;-67
2023/01/07 04:57:01;;;;;;;;;;;10.20;99.90;;;;;;5075330;28;19934;-68
2023/01/07 04:59:26;;;;;;;;;;;10.20;99.90;;;;;;5075713;28;19909;-68
2023/01/07 05:01:51;;;;;;;;;;;10.20;99.90;;;;;;5057484;28;20390;-68
2023/01/07 05:04:17;;;;;;;;;;;10.20;99.90;;;;;;5075344;28;19908;-67
2023/01/07 05:06:42;;;;;;;;;;;10.20;99.90;;;;;;5075235;28;19909;-68
2023/01/07 05:09:09;;;;;;;;;;;10.20;99.90;;;;;;5075263;28;19967;-68
2023/01/07 05:11:34;;;;;;;;;;;10.20;99.90;;;;;;5075205;28;19908;-67
2023/01/07 05:14:00;;;;;;;;;;;10.20;99.90;;;;;;5075134;28;19908;-67
2023/01/07 05:16:25;;;;;;;;;;;10.30;99.90;;;;;;5057388;28;19919;-68
2023/01/07 05:18:51;;;;;;;;;;;10.30;99.90;;;;;;5075010;28;19915;-67
2023/01/07 05:21:16;;;;;;;;;;;10.20;99.90;;;;;;5056215;28;19995;-68
2023/01/07 05:23:42;;;;;;;;;;;10.20;99.90;;;;;;5075199;28;19912;-67
2023/01/07 05:26:08;;;;;;;;;;;10.20;99.90;;;;;;5075112;28;19908;-67
2023/01/07 05:28:33;;;;;;;;;;;10.20;99.90;;;;;;5074834;28;19915;-67
2023/01/07 05:30:59;;;;;;;;;;;10.30;99.90;;;;;;5075041;28;19920;-68
2023/01/07 05:33:24;;;;;;;;;;;10.30;99.90;;;;;;5074699;28;20361;-67
2023/01/07 05:35:50;;;;;;;;;;;10.30;99.90;;;;;;5074943;28;19915;-67
2023/01/07 05:38:15;;;;;;;;;;;10.30;99.90;;;;;;5074607;28;19912;-67
2023/01/07 05:40:41;;;;;;;;;;;10.30;99.90;;;;;;5074889;28;20392;-68
2023/01/07 05:43:06;;;;;;;;;;;10.30;99.90;;;;;;5074798;28;19909;-67
2023/01/07 05:45:32;;;;;;;;;;;10.30;99.90;;;;;;5074756;28;19956;-68
2023/01/07 05:47:57;;;;;;;;;;;10.40;99.90;;;;;;5074718;28;19916;-69
2023/01/07 05:50:23;;;;;;;;;;;10.30;99.90;;;;;;5074401;28;19915;-68
2023/01/07 05:52:49;;;;;;;;;;;10.40;99.90;;;;;;5074345;28;19994;-68
2023/01/07 05:55:15;;;;;;;;;;;10.30;99.90;;;;;;5074331;28;19908;-68
2023/01/07 05:57:40;;;;;;;;;;;10.30;99.90;;;;;;5074007;28;19927;-67
2023/01/07 06:00:06;;;;;;;;;;;10.20;99.90;;;;;;5074287;28;20400;-67
2023/01/07 06:02:31;;;;;;;;;;;10.20;99.90;;;;;;5074184;28;19908;-67
2023/01/07 06:04:57;;;;;;;;;;;10.10;99.90;;;;;;5074161;28;19909;-68
2023/01/07 06:07:22;;;;;;;;;;;10.10;99.90;;;;;;5074135;28;19909;-67
2023/01/07 06:09:48;;;;;;;;;;;10.00;99.90;;;;;;5074107;28;19909;-67
2023/01/07 06:12:13;;;;;;;;;;;10.00;99.90;;;;;;5074026;28;19970;-67
2023/01/07 06:14:38;;;;;;;;;;;10.00;99.90;;;;;;5074006;28;19912;-67
2023/01/07 06:17:04;;;;;;;;;;;9.90;99.90;;;;;;5074186;28;20007;-67
2023/01/07 06:19:29;;;;;;;;;;;9.90;99.90;;;;;;5074213;28;19909;-67
2023/01/07 06:21:55;;;;;;;;;;;9.80;99.90;;;;;;5074160;28;20431;-67
2023/01/07 06:24:20;;;;;;;;;;;9.90;99.90;;;;;;5073905;28;19908;-68
2023/01/07 06:26:46;;;;;;;;;;;9.90;99.90;;;;;;5074150;28;19915;-68
2023/01/07 06:29:11;;;;;;;;;;;9.90;99.90;;;;;;5073920;28;20370;-67
2023/01/07 06:31:37;;;;;;;;;;;9.90;99.90;;;;;;5073838;28;19909;-67
2023/01/07 06:34:02;;;;;;;;;;;9.90;99.90;;;;;;5055875;28;19908;-67
2023/01/07 06:36:28;;;;;;;;;;;9.90;99.90;;;;;;5073636;28;19979;-67
2023/01/07 06:38:53;;;;;;;;;;;9.90;99.90;;;;;;5073957;28;19909;-67
2023/01/07 06:41:18;;;;;;;;;;;9.80;99.90;;;;;;5073971;28;19912;-67
2023/01/07 06:43:44;;;;;;;;;;;9.80;99.90;;;;;;5055742;28;19958;-67
2023/01/07 06:46:09;;;;;;;;;;;9.90;99.90;;;;;;5073855;28;20345;-68
2023/01/07 06:48:35;;;;;;;;;;;9.80;99.90;;;;;;5073601;28;19912;-67
2023/01/07 06:51:00;;;;;;;;;;;9.80;99.90;;;;;;5073534;28;19909;-67
2023/01/07 06:53:26;;;;;;;;;;;9.80;99.90;;;;;;5073541;28;19909;-67
2023/01/07 06:55:51;;;;;;;;;;;9.80;99.90;;;;;;5073622;28;19957;-67
2023/01/07 06:58:17;;;;;;;;;;;9.80;99.90;;;;;;5073464;28;20397;-67
2023/01/07 07:00:42;;;;;;;;;;;9.80;99.90;;;;;;5073479;28;19909;-68
2023/01/07 07:03:08;;;;;;;;;;;9.70;99.90;;;;;;5073492;28;19916;-68
2023/01/07 07:05:33;;;;;;;;;;;9.70;99.90;;;;;;5073405;28;20283;-68
2023/01/07 07:07:59;;;;;;;;;;;9.70;99.90;;;;;;5073427;28;19978;-67
2023/01/07 07:10:25;;;;;;;;;;;9.70;99.90;;;;;;5073640;28;19909;-67
2023/01/07 07:12:51;;;;;;;;;;;9.60;99.90;;;;;;5073308;28;19958;-67
2023/01/07 07:15:16;;;;;;;;;;;9.60;99.90;;;;;;5073391;28;19935;-67
2023/01/07 07:17:41;;;;;;;;;;;9.60;99.90;;;;;;5073243;28;20015;-67
2023/01/07 07:20:07;;;;;;;;;;;9.60;99.90;;;;;;5073522;28;19915;-67
2023/01/07 07:22:33;;;;;;;;;;;9.70;99.90;;;;;;5073519;28;20007;-68
2023/01/07 07:24:58;;;;;;;;;;;9.70;99.90;;;;;;5073289;28;19947;-67
2023/01/07 07:27:24;;;;;;;;;;;9.70;99.90;;;;;;5073189;28;20040;-67
2023/01/07 07:29:49;;;;;;;;;;;9.60;99.90;;;;;;5073418;28;20046;-67
2023/01/07 07:32:15;;;;;;;;;;;9.50;99.90;;;;;;5073211;28;19908;-68
2023/01/07 07:34:40;;;;;;;;;;;9.40;99.90;;;;;;5073100;28;19908;-68
2023/01/07 07:37:05;;;;;;;;;;;9.40;99.90;;;;;;5073067;28;19923;-68
2023/01/07 07:39:32;;;;;;;;;;;9.40;99.90;;;;;;5073370;28;19915;-67
2023/01/07 07:42:00;;;;;;;;;;;9.30;99.90;;;;;;5073350;28;20373;-67
2023/01/07 07:44:26;;;;;;;;;;;9.30;99.90;;;;;;5075973;28;20320;-68
2023/01/07 07:46:51;;;;;;;;;;;9.40;99.90;;;;;;5077017;28;19916;-67
2023/01/07 07:49:17;;;;;;;;;;;9.40;99.90;;;;;;5076760;28;20382;-67
2023/01/07 07:51:42;;;;;;;;;;;9.40;99.90;;;;;;5076748;28;19913;-67
2023/01/07 07:54:07;;;;;;;;;;;9.50;99.90;;;;;;5076675;28;20328;-67
2023/01/07 07:56:33;;;;;;;;;;;9.50;99.90;;;;;;5076560;28;19920;-67
2023/01/07 07:58:58;;;;;;;;;;;9.60;99.90;;;;;;5076588;28;19912;-67
2023/01/07 08:01:38;;;;;;;;;;;9.60;99.90;;;;;;5058798;28;20330;-67
2023/01/07 08:04:04;;;;;;;;;;;9.60;99.90;;;;;;5076717;28;20007;-67
2023/01/07 08:06:29;;;;;;;;;;;9.70;99.90;;;;;;5076406;28;19958;-67
2023/01/07 08:08:55;;;;;;;;;;;9.70;99.90;;;;;;5076382;28;19908;-67
2023/01/07 08:11:20;;;;;;;;;;;9.80;99.90;;;;;;5076417;28;19909;-67
2023/01/07 08:13:46;;;;;;;;;;;9.80;99.90;;;;;;5076606;28;19915;-67
2023/01/07 08:16:11;;;;;;;;;;;9.90;99.90;;;;;;5076168;28;19912;-67
2023/01/07 08:18:38;;;;;;;;;;;9.90;99.90;;;;;;5058353;28;19908;-68
2023/01/07 08:21:04;;;;;;;;;;;9.90;99.90;;;;;;5076420;28;20365;-68
2023/01/07 08:23:30;;;;;;;;;;;10.00;99.90;;;;;;5076387;28;19958;-68
2023/01/07 08:25:59;;;;;;;;;;;10.00;99.90;;;;;;5076349;28;19908;-68
2023/01/07 08:28:24;;;;;;;;;;;10.00;99.90;;;;;;5076206;28;19912;-68
2023/01/07 08:30:50;;;;;;;;;;;10.10;99.90;;;;;;5075919;28;19908;-68
2023/01/07 08:33:15;;;;;;;;;;;10.10;99.90;;;;;;5075962;28;19948;-68
2023/01/07 08:35:41;;;;;;;;;;;10.10;99.90;;;;;;5075916;28;19908;-68
2023/01/07 08:38:08;;;;;;;;;;;10.10;99.90;;;;;;5075814;28;19954;-68
2023/01/07 08:40:34;;;;;;;;;;;10.10;99.90;;;;;;5076012;28;20361;-68
2023/01/07 08:43:00;;;;;;;;;;;10.20;99.90;;;;;;5075771;28;20335;-68
2023/01/07 08:45:26;;;;;;;;;;;10.20;99.90;;;;;;5075979;28;19963;-68
2023/01/07 08:47:52;;;;;;;;;;;10.20;99.90;;;;;;5075703;28;19934;-68
2023/01/07 08:50:19;;;;;;;;;;;10.20;99.90;;;;;;5075679;28;20338;-67
2023/01/07 08:52:46;;;;;;;;;;;10.20;99.90;;;;;;5075579;28;20278;-67
2023/01/07 08:55:11;;;;;;;;;;;10.30;99.90;;;;;;5075730;28;19913;-68
2023/01/07 08:57:37;;;;;;;;;;;10.30;99.90;;;;;;5075208;28;19920;-68
2023/01/07 09:00:02;;;;;;;;;;;10.30;99.90;;;;;;5057510;28;19908;-68
2023/01/07 09:02:28;;;;;;;;;;;10.30;99.90;;;;;;5075467;28;19916;-67
2023/01/07 09:04:53;;;;;;;;;;;10.30;99.90;;;;;;5075572;28;19909;-68
2023/01/07 09:07:19;;;;;;;;;;;10.40;99.90;;;;;;5075561;28;19940;-68
2023/01/07 09:09:44;;;;;;;;;;;10.40;99.90;;;;;;5075291;28;20389;-68
2023/01/07 09:12:10;;;;;;;;;;;10.50;99.90;;;;;;5075173;28;20014;-67
2023/01/07 09:14:35;;;;;;;;;;;10.50;99.90;;;;;;5075148;28;19909;-68
2023/01/07 09:17:01;;;;;;;;;;;10.50;99.90;;;;;;5075275;28;19913;-68
2023/01/07 09:19:26;;;;;;;;;;;10.50;99.90;;;;;;5075352;28;19912;-67
2023/01/07 09:21:52;;;;;;;;;;;10.60;99.90;;;;;;5075024;28;19908;-67
2023/01/07 09:24:17;;;;;;;;;;;10.60;99.90;;;;;;5074970;28;20020;-68
2023/01/07 09:26:43;;;;;;;;;;;10.70;99.90;;;;;;5074803;28;19974;-68
2023/01/07 09:29:08;;;;;;;;;;;10.70;99.90;;;;;;5075093;28;19912;-67
2023/01/07 09:31:34;;;;;;;;;;;10.70;99.90;;;;;;5075055;28;19959;-68
2023/01/07 09:34:00;;;;;;;;;;;10.70;99.90;;;;;;5074973;28;20354;-67
2023/01/07 09:36:25;;;;;;;;;;;10.70;99.90;;;;;;5074806;28;19919;-68
2023/01/07 09:38:51;;;;;;;;;;;10.70;99.90;;;;;;5074846;28;19909;-67
2023/01/07 09:41:37;;;;;;;;;;;10.70;99.90;;;;;;5074890;28;19908;-68
2023/01/07 09:44:08;;;;;;;;;;;10.60;99.90;;;;;;5074476;28;20397;-68
2023/01/07 09:46:34;;;;;;;;;;;10.70;99.90;;;;;;5074545;28;19954;-68
2023/01/07 09:49:02;;;;;;;;;;;10.70;99.90;;;;;;5074475;28;19912;-68
2023/01/07 09:51:34;;;;;;;;;;;10.80;99.90;;;;;;5074696;28;19947;-68
2023/01/07 09:54:01;;;;;;;;;;;10.80;99.90;;;;;;5074345;28;19950;-68
2023/01/07 09:56:28;;;;;;;;;;;10.90;99.90;;;;;;5074258;28;19971;-68
2023/01/07 09:58:55;;;;;;;;;;;10.90;99.90;;;;;;5074318;28;19908;-68
2023/01/07 10:01:40;;;;;;;;;;;11.00;99.90;;;;;;5074264;28;19914;-68
2023/01/07 10:04:17;;;;;;;;;;;11.00;99.90;;;;;;5074040;28;19919;-68
2023/01/07 10:06:50;;;;;;;;;;;11.00;99.90;;;;;;5073587;28;19909;-67
2023/01/07 10:09:30;;;;;;;;;;;11.00;99.90;;;;;;5074111;28;19916;-68
2023/01/07 10:12:05;;;;;;;;;;;11.10;99.90;;;;;;5074089;28;20324;-68
2023/01/07 10:14:50;;;;;;;;;;;11.10;99.90;;;;;;5074034;28;19954;-68
2023/01/07 10:17:26;;;;;;;;;;;11.10;99.90;;;;;;5073829;28;20015;-67
2023/01/07 10:20:02;;;;;;;;;;;11.00;99.90;;;;;;5073945;28;20388;-68
2023/01/07 10:22:36;;;;;;;;;;;11.10;99.90;;;;;;5073928;28;19908;-68
2023/01/07 10:25:04;;;;;;;;;;;11.10;99.90;;;;;;5056204;28;19915;-68
2023/01/07 10:27:34;;;;;;;;;;;11.10;99.90;;;;;;5073828;28;19919;-67
2023/01/07 10:30:03;;;;;;;;;;;11.10;99.90;;;;;;5074043;28;20370;-68
2023/01/07 10:32:31;;;;;;;;;;;11.10;99.90;;;;;;5074004;28;20007;-67
2023/01/07 10:34:57;;;;;;;;;;;11.10;99.90;;;;;;5074005;28;19909;-68
2023/01/07 10:37:39;;;;;;;;;;;11.10;99.90;;;;;;5073638;28;19913;-68
2023/01/07 10:40:20;;;;;;;;;;;11.10;99.90;;;;;;5073961;28;20273;-68
2023/01/07 10:42:49;;;;;;;;;;;11.20;99.90;;;;;;5073958;28;19908;-68
2023/01/07 10:45:21;;;;;;;;;;;11.20;99.90;;;;;;5073878;28;20001;-67
2023/01/07 10:48:05;;;;;;;;;;;11.10;99.90;;;;;;5073865;28;19909;-68
2023/01/07 10:50:41;;;;;;;;;;;11.10;99.90;;;;;;5073814;28;19919;-68
2023/01/07 10:53:20;;;;;;;;;;;11.10;99.90;;;;;;5073759;28;19918;-68
2023/01/07 10:55:55;;;;;;;;;;;11.10;99.90;;;;;;5073725;28;20382;-68
2023/01/07 10:58:21;;;;;;;;;;;11.10;99.90;;;;;;5073697;28;19975;-68
2023/01/07 11:00:47;;;;;;;;;;;11.10;99.90;;;;;;5073443;28;19909;-68
2023/01/07 11:03:15;;;;;;;;;;;11.10;99.90;;;;;;5055770;28;19908;-68
2023/01/07 11:05:41;;;;;;;;;;;11.20;99.90;;;;;;5073630;28;19908;-67
2023/01/07 11:08:12;;;;;;;;;;;11.30;99.90;;;;;;5055444;28;20362;-68
2023/01/07 11:10:38;;;;;;;;;;;11.50;99.90;;;;;;5073553;28;20377;-68
2023/01/07 11:13:21;;;;;;;;;;;11.70;99.90;;;;;;5073609;28;19909;-68
2023/01/07 11:15:51;;;;;;;;;;;12.00;99.90;;;;;;5073242;28;19915;-68
2023/01/07 11:18:20;;;;;;;;;;;12.50;99.90;;;;;;5074065;28;20019;-68
2023/01/07 11:20:47;;;;;;;;;;;12.80;99.90;;;;;;5077554;28;19909;-68
2023/01/07 11:23:18;;;;;;;;;;;12.80;99.90;;;;;;5077204;28;20328;-68
2023/01/07 11:25:43;;;;;;;;;;;13.00;99.90;;;;;;5059240;28;19908;-68
2023/01/07 11:28:15;;;;;;;;;;;13.40;99.90;;;;;;5077164;28;20047;-68
2023/01/07 11:30:42;;;;;;;;;;;13.40;99.90;;;;;;5077122;28;19966;-68
2023/01/07 11:33:16;;;;;;;;;;;13.30;99.90;;;;;;5077381;28;19916;-68
2023/01/07 11:35:49;;;;;;;;;;;13.00;99.90;;;;;;5077033;28;19908;-68
2023/01/07 11:38:35;;;;;;;;;;;12.80;99.90;;;;;;5076916;28;19917;-68
2023/01/07 11:41:01;;;;;;;;;;;12.60;99.90;;;;;;5076771;28;19909;-68
2023/01/07 11:43:31;;;;;;;;;;;12.50;99.90;;;;;;5077144;28;19916;-68
2023/01/07 11:45:59;;;;;;;;;;;12.50;99.90;;;;;;5077097;28;19915;-68
2023/01/07 11:48:28;;;;;;;;;;;12.70;99.90;;;;;;5077049;28;20273;-68
2023/01/07 11:50:54;;;;;;;;;;;12.70;99.90;;;;;;5077026;28;19951;-68
2023/01/07 11:53:23;;;;;;;;;;;12.60;99.90;;;;;;5076717;28;19912;-67
2023/01/07 11:58:35;;;;;;;;;;;12.80;99.90;;;;;;5070978;28;19912;-67
2023/01/07 12:01:11;;;;;;;;;;;12.90;99.90;;;;;;5086627;28;19913;-67
2023/01/07 12:03:38;;;;;;;;;;;12.70;99.90;;;;;;5071199;28;20000;-67
2023/01/07 12:06:07;;;;;;;;;;;12.70;99.90;;;;;;5071045;28;20286;-67
2023/01/07 12:08:33;;;;;;;;;;;12.60;99.90;;;;;;5071070;28;20000;-67
2023/01/07 12:11:02;;;;;;;;;;;12.60;99.90;;;;;;5070779;28;19951;-68
2023/01/07 12:13:28;;;;;;;;;;;12.60;99.90;;;;;;5070700;28;19916;-67
2023/01/07 12:15:59;;;;;;;;;;;12.60;99.90;;;;;;5070858;28;19908;-67
2023/01/07 12:18:35;;;;;;;;;;;12.70;99.90;;;;;;5070481;28;19916;-67
2023/01/07 12:24:00;;;;;;;;;;;12.70;99.90;;;;;;5071073;28;19913;-68
2023/01/07 12:26:35;;;;;;;;;;;12.70;99.90;;;;;;5070961;28;19919;-68
2023/01/07 12:29:10;;;;;;;;;;;12.50;99.90;;;;;;5071154;28;19913;-68
2023/01/07 12:31:48;;;;;;;;;;;12.60;99.90;;;;;;5071125;28;19909;-68
2023/01/07 12:34:20;;;;;;;;;;;12.60;99.90;;;;;;5070764;28;19912;-68
2023/01/07 12:36:53;;;;;;;;;;;12.60;99.90;;;;;;5070996;28;20393;-68
2023/01/07 12:39:30;;;;;;;;;;;12.60;99.90;;;;;;5070766;28;19908;-68
2023/01/07 12:42:00;;;;;;;;;;;12.50;99.90;;;;;;5070663;28;19913;-68
2023/01/07 12:44:25;;;;;;;;;;;12.40;99.90;;;;;;5070565;28;19915;-68
2023/01/07 12:47:10;;;;;;;;;;;12.40;99.90;;;;;;5070803;28;20003;-68
2023/01/07 12:49:48;;;;;;;;;;;12.30;99.90;;;;;;5070754;28;20385;-68
2023/01/07 12:52:17;;;;;;;;;;;12.30;99.90;;;;;;5070399;28;19960;-68
2023/01/07 12:54:51;;;;;;;;;;;12.30;99.90;;;;;;5068917;28;20366;-68
2023/01/07 12:57:20;;;;;;;;;;;12.30;99.90;;;;;;5070551;28;19916;-68
2023/01/07 13:00:07;;;;;;;;;;;12.20;99.90;;;;;;5070263;28;19909;-68
2023/01/07 13:02:53;;;;;;;;;;;12.20;99.90;;;;;;5070077;28;20293;-67
2023/01/07 13:05:22;;;;;;;;;;;12.20;99.90;;;;;;5083375;28;19909;-68
2023/01/07 13:07:51;;;;;;;;;;;12.20;99.90;;;;;;5070380;28;19952;-68
2023/01/07 13:10:22;;;;;;;;;;;12.20;99.90;;;;;;5070277;28;19909;-68
2023/01/07 13:12:50;;;;;;;;;;;12.10;99.90;;;;;;5070264;28;19909;-67
2023/01/07 13:15:26;;;;;;;;;;;12.10;99.90;;;;;;5070004;28;20278;-68
2023/01/07 13:17:52;;;;;;;;;;;12.30;99.90;;;;;;5070197;28;19920;-67
2023/01/07 13:20:31;;;;;;;;;;;12.20;99.90;;;;;;5070115;28;20393;-67
2023/01/07 13:22:56;;;;;;;;;;;12.20;99.90;;;;;;5084139;28;19970;-68
2023/01/07 13:25:42;;;;;;;;;;;12.20;99.90;;;;;;5090252;28;19908;-67
2023/01/07 13:28:27;;;;;;;;;;;12.20;99.90;;;;;;5089762;28;20392;-67
2023/01/07 13:31:03;;;;;;;;;;;12.10;99.90;;;;;;5089720;28;20258;-68
2023/01/07 13:33:41;;;;;;;;;;;12.10;99.90;;;;;;5084914;28;19908;-68
2023/01/07 13:36:13;;;;;;;;;;;12.00;99.90;;;;;;5076555;28;19908;-67
2023/01/07 13:38:43;;;;;;;;;;;12.00;99.90;;;;;;5076501;28;19912;-68
2023/01/07 13:41:29;;;;;;;;;;;12.10;99.90;;;;;;5076261;28;19912;-68
2023/01/07 13:44:05;;;;;;;;;;;12.10;99.90;;;;;;5076060;28;19913;-67
2023/01/07 13:46:33;;;;;;;;;;;12.10;99.90;;;;;;5076359;28;19909;-67
2023/01/07 13:48:59;;;;;;;;;;;12.00;99.90;;;;;;5076080;28;20002;-67
2023/01/07 13:51:28;;;;;;;;;;;12.00;99.90;;;;;;5076258;28;19948;-67
2023/01/07 13:53:54;;;;;;;;;;;11.90;99.90;;;;;;5076166;28;20323;-68
2023/01/07 13:56:22;;;;;;;;;;;11.90;99.90;;;;;;5076212;28;19999;-67
2023/01/07 13:58:50;;;;;;;;;;;11.90;99.90;;;;;;5075896;28;19932;-68
2023/01/07 14:01:16;;;;;;;;;;;11.90;99.90;;;;;;5075792;28;19915;-67
2023/01/07 14:04:02;;;;;;;;;;;11.90;99.90;;;;;;5075958;28;20246;-67
2023/01/07 14:12:05;;;;;;;;;;;11.80;99.90;;;;;;5071078;28;20400;-68
2023/01/07 14:14:50;;;;;;;;;;;11.70;99.90;;;;;;5070777;28;20384;-68
2023/01/07 14:17:36;;;;;;;;;;;11.60;99.90;;;;;;5070771;28;20366;-68
2023/01/07 14:20:09;;;;;;;;;;;11.60;99.90;;;;;;5070775;28;19983;-68
2023/01/07 14:22:48;;;;;;;;;;;11.50;99.90;;;;;;5071000;28;19940;-68
2023/01/07 14:25:26;;;;;;;;;;;11.50;99.90;;;;;;5070849;28;19971;-68
2023/01/07 14:27:58;;;;;;;;;;;11.30;99.90;;;;;;5070950;28;19908;-68
2023/01/07 14:30:29;;;;;;;;;;;11.30;99.90;;;;;;5070793;28;19913;-68
2023/01/07 14:32:57;;;;;;;;;;;11.30;99.90;;;;;;5070892;28;19908;-68
2023/01/07 14:35:27;;;;;;;;;;;11.20;99.90;;;;;;5070824;28;19909;-68
2023/01/07 14:37:52;;;;;;;;;;;11.20;99.90;;;;;;5070778;28;20385;-68
2023/01/07 14:43:23;;;;;;;;;;;11.10;99.90;;;;;;5091248;27;19919;-67
2023/01/07 14:48:27;;;;;;;;;;;11.00;99.90;;;;;;5071047;28;19913;-67
2023/01/07 14:50:59;;;;;;;;;;;10.90;99.90;;;;;;5070927;28;19960;-68